sensor_id;sensor_type;location;lat;lon;timestamp;pressure;altitude;pressure_sealevel;temperature;humidity
51928;BME280;37953;52.806;18.270;2023-02-23T00:00:27;101006.56;;;1.90;100.00
51928;BME280;37953;52.806;18.270;2023-02-23T00:03:13;101008.25;;;1.89;100.00
51928;BME280;37953;52.806;18.270;2023-02-23T00:05:39;101000.41;;;1.86;100.00
51928;BME280;37953;52.806;18.270;2023-02-23T00:08:05;101003.88;;;1.87;100.00
51928;BME280;37953;52.806;18.270;2023-02-23T00:10:31;100993.53;;;1.85;100.00
51928;BME280;37953;52.806;18.270;2023-02-23T00:12:58;100991.78;;;1.84;100.00
51928;BME280;37953;52.806;18.270;2023-02-23T00:15:25;100996.84;;;1.82;100.00
51928;BME280;37953;52.806;18.270;2023-02-23T00:17:52;100993.38;;;1.82;100.00
51928;BME280;37953;52.806;18.270;2023-02-23T00:20:18;100983.97;;;1.81;100.00
51928;BME280;37953;52.806;18.270;2023-02-23T00:22:51;100988.13;;;1.79;100.00
51928;BME280;37953;52.806;18.270;2023-02-23T00:25:22;100979.50;;;1.77;100.00
51928;BME280;37953;52.806;18.270;2023-02-23T00:27:48;100986.31;;;1.76;100.00
51928;BME280;37953;52.806;18.270;2023-02-23T00:30:15;100984.63;;;1.77;100.00
51928;BME280;37953;52.806;18.270;2023-02-23T00:32:42;100992.22;;;1.75;100.00
51928;BME280;37953;52.806;18.270;2023-02-23T00:35:08;100991.34;;;1.75;100.00
51928;BME280;37953;52.806;18.270;2023-02-23T00:37:42;100989.53;;;1.72;100.00
51928;BME280;37953;52.806;18.270;2023-02-23T00:40:09;100992.88;;;1.71;100.00
51928;BME280;37953;52.806;18.270;2023-02-23T00:42:39;100986.81;;;1.69;100.00
51928;BME280;37953;52.806;18.270;2023-02-23T00:45:05;100987.63;;;1.68;100.00
51928;BME280;37953;52.806;18.270;2023-02-23T00:47:33;100987.63;;;1.68;100.00
51928;BME280;37953;52.806;18.270;2023-02-23T00:50:00;100990.97;;;1.67;100.00
51928;BME280;37953;52.806;18.270;2023-02-23T00:52:26;100983.25;;;1.66;100.00
51928;BME280;37953;52.806;18.270;2023-02-23T00:54:53;100984.91;;;1.65;100.00
51928;BME280;37953;52.806;18.270;2023-02-23T00:57:20;100981.47;;;1.65;100.00
51928;BME280;37953;52.806;18.270;2023-02-23T00:59:47;100980.53;;;1.62;100.00
51928;BME280;37953;52.806;18.270;2023-02-23T01:02:12;100977.09;;;1.62;100.00
51928;BME280;37953;52.806;18.270;2023-02-23T01:04:38;100973.66;;;1.61;100.00
51928;BME280;37953;52.806;18.270;2023-02-23T01:07:04;100980.47;;;1.61;100.00
51928;BME280;37953;52.806;18.270;2023-02-23T01:09:31;100982.09;;;1.59;100.00
51928;BME280;37953;52.806;18.270;2023-02-23T01:11:57;100980.31;;;1.58;100.00
51928;BME280;37953;52.806;18.270;2023-02-23T01:14:26;100981.06;;;1.55;100.00
51928;BME280;37953;52.806;18.270;2023-02-23T01:16:58;100981.06;;;1.55;100.00
51928;BME280;37953;52.806;18.270;2023-02-23T01:19:24;100975.00;;;1.53;100.00
51928;BME280;37953;52.806;18.270;2023-02-23T01:21:50;100975.78;;;1.52;100.00
51928;BME280;37953;52.806;18.270;2023-02-23T01:24:16;100978.34;;;1.52;100.00
51928;BME280;37953;52.806;18.270;2023-02-23T01:26:43;100972.25;;;1.50;100.00
51928;BME280;37953;52.806;18.270;2023-02-23T01:29:14;100979.94;;;1.50;100.00
51928;BME280;37953;52.806;18.270;2023-02-23T01:31:44;100967.97;;;1.49;100.00
51928;BME280;37953;52.806;18.270;2023-02-23T01:34:11;100971.38;;;1.50;100.00
51928;BME280;37953;52.806;18.270;2023-02-23T01:36:37;100968.75;;;1.48;100.00
51928;BME280;37953;52.806;18.270;2023-02-23T01:39:04;100970.44;;;1.48;100.00
51928;BME280;37953;52.806;18.270;2023-02-23T01:41:37;100966.06;;;1.45;100.00
51928;BME280;37953;52.806;18.270;2023-02-23T01:46:38;100960.00;;;1.43;100.00
51928;BME280;37953;52.806;18.270;2023-02-23T01:49:05;100953.13;;;1.42;100.00
51928;BME280;37953;52.806;18.270;2023-02-23T01:51:33;100953.13;;;1.42;100.00
51928;BME280;37953;52.806;18.270;2023-02-23T01:54:03;100949.63;;;1.40;100.00
51928;BME280;37953;52.806;18.270;2023-02-23T01:56:34;100949.53;;;1.38;100.00
51928;BME280;37953;52.806;18.270;2023-02-23T01:59:05;100946.97;;;1.38;100.00
51928;BME280;37953;52.806;18.270;2023-02-23T02:01:31;100946.09;;;1.38;100.00
51928;BME280;37953;52.806;18.270;2023-02-23T02:03:59;100939.22;;;1.37;100.00
51928;BME280;37953;52.806;18.270;2023-02-23T02:06:26;100934.97;;;1.37;100.00
51928;BME280;37953;52.806;18.270;2023-02-23T02:08:54;100931.53;;;1.37;100.00
51928;BME280;37953;52.806;18.270;2023-02-23T02:11:21;100934.00;;;1.35;100.00
51928;BME280;37953;52.806;18.270;2023-02-23T02:13:51;100938.25;;;1.35;100.00
51928;BME280;37953;52.806;18.270;2023-02-23T02:19:58;100923.66;;;1.32;100.00
51928;BME280;37953;52.806;18.270;2023-02-23T02:34:59;100913.28;;;1.29;100.00
51928;BME280;37953;52.806;18.270;2023-02-23T02:50:28;100903.91;;;1.30;100.00
51928;BME280;37953;52.806;18.270;2023-02-23T02:52:57;100899.56;;;1.29;100.00
51928;BME280;37953;52.806;18.270;2023-02-23T02:55:28;100894.47;;;1.29;100.00
51928;BME280;37953;52.806;18.270;2023-02-23T02:57:58;100897.91;;;1.29;100.00
51928;BME280;37953;52.806;18.270;2023-02-23T03:00:30;100900.47;;;1.29;100.00
51928;BME280;37953;52.806;18.270;2023-02-23T03:03:31;100895.28;;;1.28;100.00
51928;BME280;37953;52.806;18.270;2023-02-23T03:06:17;100893.50;;;1.27;100.00
51928;BME280;37953;52.806;18.270;2023-02-23T03:09:52;100892.63;;;1.26;100.00
51928;BME280;37953;52.806;18.270;2023-02-23T03:12:16;100894.34;;;1.26;100.00
51928;BME280;37953;52.806;18.270;2023-02-23T03:15:18;100899.44;;;1.26;100.00
51928;BME280;37953;52.806;18.270;2023-02-23T03:21:25;100892.50;;;1.23;100.00
51928;BME280;37953;52.806;18.270;2023-02-23T03:24:34;100883.88;;;1.21;100.00
51928;BME280;37953;52.806;18.270;2023-02-23T03:27:19;100889.00;;;1.21;100.00
51928;BME280;37953;52.806;18.270;2023-02-23T03:33:19;100888.09;;;1.20;100.00
51928;BME280;37953;52.806;18.270;2023-02-23T03:36:26;100886.38;;;1.19;100.00
51928;BME280;37953;52.806;18.270;2023-02-23T03:39:23;100882.97;;;1.20;100.00
51928;BME280;37953;52.806;18.270;2023-02-23T03:42:25;100878.69;;;1.19;100.00
51928;BME280;37953;52.806;18.270;2023-02-23T03:45:23;100882.03;;;1.18;100.00
51928;BME280;37953;52.806;18.270;2023-02-23T03:48:08;100882.94;;;1.19;100.00
51928;BME280;37953;52.806;18.270;2023-02-23T03:50:55;100881.16;;;1.18;100.00
51928;BME280;37953;52.806;18.270;2023-02-23T03:56:48;100882.78;;;1.16;100.00
51928;BME280;37953;52.806;18.270;2023-02-23T03:59:40;100876.69;;;1.14;100.00
51928;BME280;37953;52.806;18.270;2023-02-23T04:02:26;100883.59;;;1.15;100.00
51928;BME280;37953;52.806;18.270;2023-02-23T04:05:15;100875.03;;;1.14;100.00
51928;BME280;37953;52.806;18.270;2023-02-23T04:08:01;100876.78;;;1.15;100.00
51928;BME280;37953;52.806;18.270;2023-02-23T04:10:49;100873.28;;;1.13;100.00
51928;BME280;37953;52.806;18.270;2023-02-23T04:13:33;100873.28;;;1.13;100.00
51928;BME280;37953;52.806;18.270;2023-02-23T04:16:03;100861.34;;;1.14;100.00
51928;BME280;37953;52.806;18.270;2023-02-23T04:18:31;100868.16;;;1.13;100.00
51928;BME280;37953;52.806;18.270;2023-02-23T04:20:58;100869.03;;;1.14;100.00
51928;BME280;37953;52.806;18.270;2023-02-23T04:23:30;100861.34;;;1.14;100.00
51928;BME280;37953;52.806;18.270;2023-02-23T04:25:55;100866.41;;;1.12;100.00
51928;BME280;37953;52.806;18.270;2023-02-23T04:28:22;100863.84;;;1.12;100.00
51928;BME280;37953;52.806;18.270;2023-02-23T04:30:48;100855.38;;;1.13;100.00
51928;BME280;37953;52.806;18.270;2023-02-23T04:33:16;100859.69;;;1.14;100.00
51928;BME280;37953;52.806;18.270;2023-02-23T04:35:42;100854.56;;;1.14;100.00
51928;BME280;37953;52.806;18.270;2023-02-23T04:38:08;100848.56;;;1.14;100.00
51928;BME280;37953;52.806;18.270;2023-02-23T04:40:34;100848.56;;;1.14;100.00
51928;BME280;37953;52.806;18.270;2023-02-23T04:43:00;100845.13;;;1.13;100.00
51928;BME280;37953;52.806;18.270;2023-02-23T04:45:26;100841.69;;;1.13;100.00
51928;BME280;37953;52.806;18.270;2023-02-23T04:47:51;100841.69;;;1.13;100.00
51928;BME280;37953;52.806;18.270;2023-02-23T04:50:17;100843.44;;;1.14;100.00
51928;BME280;37953;52.806;18.270;2023-02-23T04:52:43;100836.59;;;1.13;100.00
51928;BME280;37953;52.806;18.270;2023-02-23T04:55:16;100833.19;;;1.14;100.00
51928;BME280;37953;52.806;18.270;2023-02-23T04:57:42;100832.34;;;1.13;100.00
51928;BME280;37953;52.806;18.270;2023-02-23T05:00:08;100830.63;;;1.14;100.00
51928;BME280;37953;52.806;18.270;2023-02-23T05:02:34;100830.59;;;1.12;100.00
51928;BME280;37953;52.806;18.270;2023-02-23T05:05:00;100828.03;;;1.12;100.00
51928;BME280;37953;52.806;18.270;2023-02-23T05:07:25;100818.59;;;1.11;100.00
51928;BME280;37953;52.806;18.270;2023-02-23T05:09:51;100820.19;;;1.09;100.00
51928;BME280;37953;52.806;18.270;2023-02-23T05:12:17;100822.03;;;1.12;100.00
51928;BME280;37953;52.806;18.270;2023-02-23T05:14:43;100822.91;;;1.12;100.00
51928;BME280;37953;52.806;18.270;2023-02-23T05:17:09;100821.22;;;1.13;100.00
51928;BME280;37953;52.806;18.270;2023-02-23T05:19:34;100811.00;;;1.13;100.00
51928;BME280;37953;52.806;18.270;2023-02-23T05:22:01;100815.28;;;1.14;100.00
51928;BME280;37953;52.806;18.270;2023-02-23T05:24:27;100813.56;;;1.13;100.00
51928;BME280;37953;52.806;18.270;2023-02-23T05:26:53;100809.22;;;1.12;100.00
51928;BME280;37953;52.806;18.270;2023-02-23T05:29:19;100820.28;;;1.11;100.00
51928;BME280;37953;52.806;18.270;2023-02-23T05:31:44;100813.41;;;1.10;100.00
51928;BME280;37953;52.806;18.270;2023-02-23T05:34:13;100814.22;;;1.09;100.00
51928;BME280;37953;52.806;18.270;2023-02-23T05:36:47;100804.84;;;1.09;100.00
51928;BME280;37953;52.806;18.270;2023-02-23T05:39:13;100811.75;;;1.10;100.00
51928;BME280;37953;52.806;18.270;2023-02-23T05:41:39;100806.75;;;1.13;100.00
51928;BME280;37953;52.806;18.270;2023-02-23T05:44:05;100806.94;;;1.18;100.00
51928;BME280;37953;52.806;18.270;2023-02-23T05:46:31;100807.03;;;1.19;100.00
51928;BME280;37953;52.806;18.270;2023-02-23T05:48:58;100808.06;;;1.23;100.00
51928;BME280;37953;52.806;18.270;2023-02-23T05:51:25;100806.38;;;1.24;100.00
51928;BME280;37953;52.806;18.270;2023-02-23T05:53:51;100809.88;;;1.26;100.00
51928;BME280;37953;52.806;18.270;2023-02-23T05:56:23;100798.81;;;1.27;100.00
51928;BME280;37953;52.806;18.270;2023-02-23T05:58:50;100806.66;;;1.30;100.00
51928;BME280;37953;52.806;18.270;2023-02-23T06:01:16;100809.22;;;1.30;100.00
51928;BME280;37953;52.806;18.270;2023-02-23T06:03:43;100810.06;;;1.30;100.00
51928;BME280;37953;52.806;18.270;2023-02-23T06:06:09;100804.97;;;1.30;100.00
51928;BME280;37953;52.806;18.270;2023-02-23T06:08:35;100799.84;;;1.30;100.00
51928;BME280;37953;52.806;18.270;2023-02-23T06:11:01;100803.28;;;1.31;100.00
51928;BME280;37953;52.806;18.270;2023-02-23T06:13:27;100799.84;;;1.30;100.00
51928;BME280;37953;52.806;18.270;2023-02-23T06:15:53;100808.38;;;1.31;100.00
51928;BME280;37953;52.806;18.270;2023-02-23T06:18:19;100800.72;;;1.31;100.00
51928;BME280;37953;52.806;18.270;2023-02-23T06:20:45;100808.47;;;1.32;100.00
51928;BME280;37953;52.806;18.270;2023-02-23T06:23:11;100804.22;;;1.33;100.00
51928;BME280;37953;52.806;18.270;2023-02-23T06:25:37;100799.19;;;1.34;100.00
51928;BME280;37953;52.806;18.270;2023-02-23T06:28:04;100805.09;;;1.33;100.00
51928;BME280;37953;52.806;18.270;2023-02-23T06:30:37;100799.25;;;1.36;100.00
51928;BME280;37953;52.806;18.270;2023-02-23T06:33:09;100799.25;;;1.36;100.00
51928;BME280;37953;52.806;18.270;2023-02-23T06:35:35;100795.88;;;1.37;100.00
51928;BME280;37953;52.806;18.270;2023-02-23T06:38:01;100792.44;;;1.36;100.00
51928;BME280;37953;52.806;18.270;2023-02-23T06:40:27;100795.94;;;1.38;100.00
51928;BME280;37953;52.806;18.270;2023-02-23T06:42:53;100792.56;;;1.39;100.00
51928;BME280;37953;52.806;18.270;2023-02-23T06:45:19;100790.91;;;1.40;100.00
51928;BME280;37953;52.806;18.270;2023-02-23T06:47:45;100796.06;;;1.41;100.00
51928;BME280;37953;52.806;18.270;2023-02-23T06:50:12;100799.53;;;1.42;100.00
51928;BME280;37953;52.806;18.270;2023-02-23T06:52:38;100791.03;;;1.43;100.00
51928;BME280;37953;52.806;18.270;2023-02-23T06:55:04;100802.13;;;1.43;100.00
51928;BME280;37953;52.806;18.270;2023-02-23T06:57:30;100800.47;;;1.44;100.00
51928;BME280;37953;52.806;18.270;2023-02-23T06:59:56;100801.44;;;1.46;100.00
51928;BME280;37953;52.806;18.270;2023-02-23T07:02:22;100798.88;;;1.46;100.00
51928;BME280;37953;52.806;18.270;2023-02-23T07:04:47;100784.41;;;1.48;100.00
51928;BME280;37953;52.806;18.270;2023-02-23T07:07:13;100788.75;;;1.49;100.00
51928;BME280;37953;52.806;18.270;2023-02-23T07:09:40;100792.25;;;1.51;100.00
51928;BME280;37953;52.806;18.270;2023-02-23T07:12:08;100790.56;;;1.52;100.00
51928;BME280;37953;52.806;18.270;2023-02-23T07:14:34;100786.31;;;1.52;100.00
51928;BME280;37953;52.806;18.270;2023-02-23T07:17:00;100785.50;;;1.53;100.00
51928;BME280;37953;52.806;18.270;2023-02-23T07:19:26;100779.56;;;1.54;100.00
51928;BME280;37953;52.806;18.270;2023-02-23T07:22:04;100780.50;;;1.56;100.00
51928;BME280;37953;52.806;18.270;2023-02-23T07:24:30;100774.59;;;1.57;100.00
51928;BME280;37953;52.806;18.270;2023-02-23T07:26:57;100782.34;;;1.59;100.00
51928;BME280;37953;52.806;18.270;2023-02-23T07:29:22;100778.09;;;1.59;100.00
51928;BME280;37953;52.806;18.270;2023-02-23T07:31:48;100767.88;;;1.59;100.00
51928;BME280;37953;52.806;18.270;2023-02-23T07:34:14;100769.69;;;1.62;100.00
51928;BME280;37953;52.806;18.270;2023-02-23T07:36:40;100767.97;;;1.62;100.00
51928;BME280;37953;52.806;18.270;2023-02-23T07:39:06;100766.38;;;1.65;100.00
51928;BME280;37953;52.806;18.270;2023-02-23T07:41:32;100763.88;;;1.66;100.00
51928;BME280;37953;52.806;18.270;2023-02-23T07:43:58;100768.19;;;1.67;100.00
51928;BME280;37953;52.806;18.270;2023-02-23T07:46:24;100761.44;;;1.69;100.00
51928;BME280;37953;52.806;18.270;2023-02-23T07:48:50;100751.28;;;1.71;100.00
51928;BME280;37953;52.806;18.270;2023-02-23T07:51:16;100764.22;;;1.74;100.00
51928;BME280;37953;52.806;18.270;2023-02-23T07:53:42;100758.34;;;1.76;100.00
51928;BME280;37953;52.806;18.270;2023-02-23T07:56:09;100752.41;;;1.77;100.00
51928;BME280;37953;52.806;18.270;2023-02-23T07:58:36;100754.25;;;1.80;100.00
51928;BME280;37953;52.806;18.270;2023-02-23T08:01:02;100752.56;;;1.80;100.00
51928;BME280;37953;52.806;18.270;2023-02-23T08:03:28;100754.28;;;1.81;100.00
51928;BME280;37953;52.806;18.270;2023-02-23T08:05:54;100750.19;;;1.85;100.00
51928;BME280;37953;52.806;18.270;2023-02-23T08:08:20;100752.84;;;1.88;100.00
51928;BME280;37953;52.806;18.270;2023-02-23T08:10:46;100748.75;;;1.92;100.00
51928;BME280;37953;52.806;18.270;2023-02-23T08:13:13;100742.88;;;1.94;100.00
51928;BME280;37953;52.806;18.270;2023-02-23T08:15:40;100743.81;;;1.96;100.00
51928;BME280;37953;52.806;18.270;2023-02-23T08:18:06;100744.75;;;1.98;100.00
51928;BME280;37953;52.806;18.270;2023-02-23T08:20:35;100735.44;;;2.00;100.00
51928;BME280;37953;52.806;18.270;2023-02-23T08:23:00;100733.03;;;2.03;100.00
51928;BME280;37953;52.806;18.270;2023-02-23T08:25:26;100733.97;;;2.06;100.00
51928;BME280;37953;52.806;18.270;2023-02-23T08:27:52;100740.06;;;2.09;100.00
51928;BME280;37953;52.806;18.270;2023-02-23T08:30:22;100735.09;;;2.12;100.00
51928;BME280;37953;52.806;18.270;2023-02-23T08:32:48;100728.38;;;2.16;100.00
51928;BME280;37953;52.806;18.270;2023-02-23T08:35:16;100730.22;;;2.18;100.00
51928;BME280;37953;52.806;18.270;2023-02-23T08:37:47;100733.75;;;2.22;100.00
51928;BME280;37953;52.806;18.270;2023-02-23T08:40:13;100731.34;;;2.25;100.00
51928;BME280;37953;52.806;18.270;2023-02-23T08:42:43;100725.44;;;2.28;100.00
51928;BME280;37953;52.806;18.270;2023-02-23T08:45:09;100719.56;;;2.30;100.00
51928;BME280;37953;52.806;18.270;2023-02-23T08:47:35;100717.06;;;2.32;100.00
51928;BME280;37953;52.806;18.270;2023-02-23T08:50:01;100703.50;;;2.34;100.00
51928;BME280;37953;52.806;18.270;2023-02-23T08:52:27;100711.31;;;2.37;100.00
51928;BME280;37953;52.806;18.270;2023-02-23T08:54:53;100714.94;;;2.42;100.00
51928;BME280;37953;52.806;18.270;2023-02-23T08:57:20;100703.91;;;2.45;100.00
51928;BME280;37953;52.806;18.270;2023-02-23T08:59:46;100702.28;;;2.47;100.00
51928;BME280;37953;52.806;18.270;2023-02-23T09:02:12;100701.53;;;2.50;100.00
51928;BME280;37953;52.806;18.270;2023-02-23T09:04:39;100701.66;;;2.53;100.00
51928;BME280;37953;52.806;18.270;2023-02-23T09:07:09;100695.84;;;2.57;100.00
51928;BME280;37953;52.806;18.270;2023-02-23T09:09:53;100696.00;;;2.61;100.00
51928;BME280;37953;52.806;18.270;2023-02-23T09:12:19;100690.25;;;2.67;100.00
51928;BME280;37953;52.806;18.270;2023-02-23T09:14:45;100691.22;;;2.71;100.00
51928;BME280;37953;52.806;18.270;2023-02-23T09:17:11;100681.97;;;2.74;100.00
51928;BME280;37953;52.806;18.270;2023-02-23T09:19:37;100678.75;;;2.80;100.00
51928;BME280;37953;52.806;18.270;2023-02-23T09:22:03;100672.84;;;2.82;100.00
51928;BME280;37953;52.806;18.270;2023-02-23T09:24:29;100676.44;;;2.86;100.00
51928;BME280;37953;52.806;18.270;2023-02-23T09:26:54;100664.56;;;2.90;100.00
51928;BME280;37953;52.806;18.270;2023-02-23T09:29:23;100670.69;;;2.93;100.00
51928;BME280;37953;52.806;18.270;2023-02-23T09:31:49;100665.66;;;2.96;100.00
51928;BME280;37953;52.806;18.270;2023-02-23T09:34:20;100660.72;;;3.01;100.00
51928;BME280;37953;52.806;18.270;2023-02-23T09:36:45;100660.81;;;3.04;100.00
51928;BME280;37953;52.806;18.270;2023-02-23T09:39:11;100654.91;;;3.06;100.00
51928;BME280;37953;52.806;18.270;2023-02-23T09:44:33;100649.19;;;3.14;100.00
51928;BME280;37953;52.806;18.270;2023-02-23T09:49:34;100640.88;;;3.21;100.00
51928;BME280;37953;52.806;18.270;2023-02-23T09:52:02;100635.91;;;3.25;100.00
51928;BME280;37953;52.806;18.270;2023-02-23T09:54:30;100637.75;;;3.30;100.00
51928;BME280;37953;52.806;18.270;2023-02-23T09:56:57;100644.75;;;3.34;100.00
51928;BME280;37953;52.806;18.270;2023-02-23T09:59:25;100633.75;;;3.38;100.00
51928;BME280;37953;52.806;18.270;2023-02-23T10:04:23;100637.41;;;3.44;100.00
51928;BME280;37953;52.806;18.270;2023-02-23T10:07:01;100636.63;;;3.47;100.00
51928;BME280;37953;52.806;18.270;2023-02-23T10:14:57;100630.25;;;3.60;100.00
51928;BME280;37953;52.806;18.270;2023-02-23T10:17:32;100633.00;;;3.66;100.00
51928;BME280;37953;52.806;18.270;2023-02-23T10:22:26;100616.13;;;3.73;100.00
51928;BME280;37953;52.806;18.270;2023-02-23T10:25:01;100618.81;;;3.77;100.00
51928;BME280;37953;52.806;18.270;2023-02-23T10:27:31;100624.91;;;3.81;100.00
51928;BME280;37953;52.806;18.270;2023-02-23T10:30:02;100617.31;;;3.84;100.00
51928;BME280;37953;52.806;18.270;2023-02-23T10:35:00;100611.53;;;3.91;100.00
51928;BME280;37953;52.806;18.270;2023-02-23T10:37:33;100618.53;;;3.95;100.00
51928;BME280;37953;52.806;18.270;2023-02-23T10:39:59;100618.66;;;4.00;100.00
51928;BME280;37953;52.806;18.270;2023-02-23T10:42:25;100617.06;;;4.03;100.00
51928;BME280;37953;52.806;18.270;2023-02-23T10:44:53;100618.94;;;4.07;100.00
51928;BME280;37953;52.806;18.270;2023-02-23T10:47:20;100612.13;;;4.10;100.00
51928;BME280;37953;52.806;18.270;2023-02-23T10:49:50;100613.91;;;4.12;100.00
51928;BME280;37953;52.806;18.270;2023-02-23T10:52:29;100598.59;;;4.15;100.00
51928;BME280;37953;52.806;18.270;2023-02-23T10:54:58;100588.41;;;4.18;100.00
51928;BME280;37953;52.806;18.270;2023-02-23T10:57:25;100587.66;;;4.22;100.00
51928;BME280;37953;52.806;18.270;2023-02-23T11:02:23;100578.38;;;4.27;100.00
51928;BME280;37953;52.806;18.270;2023-02-23T11:04:53;100570.72;;;4.29;100.00
51928;BME280;37953;52.806;18.270;2023-02-23T11:07:24;100573.34;;;4.31;100.00
51928;BME280;37953;52.806;18.270;2023-02-23T11:09:54;100578.63;;;4.35;100.00
51928;BME280;37953;52.806;18.270;2023-02-23T11:12:22;100576.97;;;4.37;100.00
51928;BME280;37953;52.806;18.270;2023-02-23T11:14:50;100571.09;;;4.41;100.00
51928;BME280;37953;52.806;18.270;2023-02-23T11:17:23;100571.16;;;4.44;100.00
51928;BME280;37953;52.806;18.270;2023-02-23T11:19:50;100565.28;;;4.48;100.00
51928;BME280;37953;52.806;18.270;2023-02-23T11:22:22;100559.41;;;4.53;100.00
51928;BME280;37953;52.806;18.270;2023-02-23T11:24:51;100547.56;;;4.58;100.00
51928;BME280;37953;52.806;18.270;2023-02-23T11:27:24;100545.91;;;4.61;100.00
51928;BME280;37953;52.806;18.270;2023-02-23T11:32:30;100536.72;;;4.69;100.00
51928;BME280;37953;52.806;18.270;2023-02-23T11:37:41;100536.09;;;4.78;100.00
51928;BME280;37953;52.806;18.270;2023-02-23T11:40:20;100541.34;;;4.81;100.00
51928;BME280;37953;52.806;18.270;2023-02-23T11:42:51;100538.03;;;4.85;100.00
51928;BME280;37953;52.806;18.270;2023-02-23T11:45:18;100535.53;;;4.88;100.00
51928;BME280;37953;52.806;18.270;2023-02-23T11:47:45;100533.06;;;4.93;100.00
51928;BME280;37953;52.806;18.270;2023-02-23T11:53:04;100518.78;;;5.04;100.00
51928;BME280;37953;52.806;18.270;2023-02-23T11:55:33;100512.03;;;5.09;100.00
51928;BME280;37953;52.806;18.270;2023-02-23T12:00:58;100510.59;;;5.19;100.00
51928;BME280;37953;52.806;18.270;2023-02-23T12:03:25;100510.69;;;5.24;100.00
51928;BME280;37953;52.806;18.270;2023-02-23T12:05:54;100507.38;;;5.28;100.00
51928;BME280;37953;52.806;18.270;2023-02-23T12:10:53;100499.91;;;5.39;100.00
51928;BME280;37953;52.806;18.270;2023-02-23T12:20:52;100484.84;;;5.56;100.00
51928;BME280;37953;52.806;18.270;2023-02-23T12:23:21;100476.34;;;5.60;100.00
51928;BME280;37953;52.806;18.270;2023-02-23T12:25:54;100473.81;;;5.63;100.00
51928;BME280;37953;52.806;18.270;2023-02-23T12:28:25;100470.47;;;5.67;100.00
51928;BME280;37953;52.806;18.270;2023-02-23T12:30:59;100466.31;;;5.72;100.00
51928;BME280;37953;52.806;18.270;2023-02-23T12:33:34;100457.81;;;5.76;100.00
51928;BME280;37953;52.806;18.270;2023-02-23T12:38:55;100446.84;;;5.85;100.00
51928;BME280;37953;52.806;18.270;2023-02-23T12:41:37;100446.88;;;5.88;100.00
51928;BME280;37953;52.806;18.270;2023-02-23T12:44:10;100446.13;;;5.92;100.00
51928;BME280;37953;52.806;18.270;2023-02-23T12:46:40;100453.03;;;5.93;100.00
51928;BME280;37953;52.806;18.270;2023-02-23T12:49:21;100447.97;;;5.96;100.00
51928;BME280;37953;52.806;18.270;2023-02-23T12:51:54;100437.63;;;5.96;100.00
51928;BME280;37953;52.806;18.270;2023-02-23T12:54:22;100435.09;;;5.98;100.00
51928;BME280;37953;52.806;18.270;2023-02-23T12:56:51;100430.00;;;5.99;100.00
51928;BME280;37953;52.806;18.270;2023-02-23T12:59:23;100423.97;;;6.00;100.00
51928;BME280;37953;52.806;18.270;2023-02-23T13:07:19;100414.56;;;6.02;100.00
51928;BME280;37953;52.806;18.270;2023-02-23T13:12:42;100404.22;;;6.01;100.00
51928;BME280;37953;52.806;18.270;2023-02-23T13:23:10;100384.44;;;6.00;100.00
51928;BME280;37953;52.806;18.270;2023-02-23T13:28:48;100368.97;;;6.00;100.00
51928;BME280;37953;52.806;18.270;2023-02-23T13:31:21;100369.00;;;6.01;100.00
51928;BME280;37953;52.806;18.270;2023-02-23T13:33:48;100368.16;;;6.02;100.00
51928;BME280;37953;52.806;18.270;2023-02-23T13:36:14;100365.56;;;6.02;100.00
51928;BME280;37953;52.806;18.270;2023-02-23T13:38:43;100361.28;;;6.03;100.00
51928;BME280;37953;52.806;18.270;2023-02-23T13:41:15;100355.28;;;6.04;100.00
51928;BME280;37953;52.806;18.270;2023-02-23T13:43:59;100348.41;;;6.04;100.00
51928;BME280;37953;52.806;18.270;2023-02-23T13:51:43;100328.69;;;6.06;100.00
51928;BME280;37953;52.806;18.270;2023-02-23T13:56:56;100333.84;;;6.06;100.00
51928;BME280;37953;52.806;18.270;2023-02-23T13:59:36;100332.97;;;6.06;100.00
51928;BME280;37953;52.806;18.270;2023-02-23T14:02:18;100330.41;;;6.07;100.00
51928;BME280;37953;52.806;18.270;2023-02-23T14:04:48;100332.97;;;6.07;100.00
51928;BME280;37953;52.806;18.270;2023-02-23T14:07:17;100327.00;;;6.08;100.00
51928;BME280;37953;52.806;18.270;2023-02-23T14:09:54;100329.63;;;6.10;100.00
51928;BME280;37953;52.806;18.270;2023-02-23T14:14:49;100318.44;;;6.11;100.00
51928;BME280;37953;52.806;18.270;2023-02-23T14:22:29;100316.78;;;6.13;100.00
51928;BME280;37953;52.806;18.270;2023-02-23T14:27:43;100313.38;;;6.14;100.00
51928;BME280;37953;52.806;18.270;2023-02-23T14:32:39;100312.50;;;6.15;100.00
51928;BME280;37953;52.806;18.270;2023-02-23T14:35:08;100314.25;;;6.16;100.00
51928;BME280;37953;52.806;18.270;2023-02-23T14:37:55;100311.69;;;6.16;100.00
51928;BME280;37953;52.806;18.270;2023-02-23T14:40:33;100303.09;;;6.17;100.00
51928;BME280;37953;52.806;18.270;2023-02-23T14:43:18;100305.66;;;6.17;100.00
51928;BME280;37953;52.806;18.270;2023-02-23T14:45:49;100303.94;;;6.18;100.00
51928;BME280;37953;52.806;18.270;2023-02-23T14:48:18;100297.94;;;6.17;100.00
51928;BME280;37953;52.806;18.270;2023-02-23T14:50:48;100299.66;;;6.17;100.00
51928;BME280;37953;52.806;18.270;2023-02-23T14:53:20;100295.34;;;6.17;100.00
51928;BME280;37953;52.806;18.270;2023-02-23T14:55:47;100294.50;;;6.17;100.00
51928;BME280;37953;52.806;18.270;2023-02-23T14:58:20;100291.91;;;6.17;100.00
51928;BME280;37953;52.806;18.270;2023-02-23T15:00:46;100283.31;;;6.18;100.00